createdAt,value
2022-10-04T00:01:12.968Z,86.13
2022-10-04T00:03:42.868Z,83.57
2022-10-04T00:06:23.996Z,81.63
2022-10-04T00:09:21.774Z,78.22
2022-10-04T00:12:05.620Z,74.68
2022-10-04T00:14:37.778Z,75.40
2022-10-04T00:17:27.793Z,74.65
2022-10-04T00:21:03.772Z,72.65
2022-10-04T00:26:23.708Z,68.88
2022-10-04T00:28:52.038Z,71.28
2022-10-04T00:31:18.990Z,71.45
2022-10-04T00:33:51.365Z,71.47
2022-10-04T00:36:24.056Z,70.28
2022-10-04T00:39:29.836Z,70.07
2022-10-04T00:42:24.471Z,66.55
2022-10-04T00:45:24.803Z,67.35
2022-10-04T00:48:07.987Z,69.00
2022-10-04T00:50:45.893Z,68.63
2022-10-04T00:53:32.692Z,69.75
2022-10-04T00:56:04.589Z,69.53
2022-10-04T00:58:45.395Z,71.85
2022-10-04T01:01:12.436Z,70.75
2022-10-04T01:03:44.074Z,74.03
2022-10-04T01:06:13.563Z,75.95
2022-10-04T01:08:47.499Z,76.80
2022-10-04T01:11:23.556Z,72.85
2022-10-04T01:13:58.558Z,73.53
2022-10-04T01:16:47.785Z,71.38
2022-10-04T01:19:48.796Z,70.90
2022-10-04T01:22:37.366Z,72.72
2022-10-04T01:25:04.566Z,71.50
2022-10-04T01:27:40.362Z,70.13
2022-10-04T01:30:14.202Z,69.28
2022-10-04T01:32:42.196Z,71.30
2022-10-04T01:35:15.338Z,70.47
2022-10-04T01:38:02.812Z,69.30
2022-10-04T01:41:08.812Z,71.53
2022-10-04T01:44:13.878Z,70.18
2022-10-04T01:49:30.618Z,69.80
2022-10-04T01:52:07.397Z,68.25
2022-10-04T01:54:39.566Z,68.90
2022-10-04T01:57:14.171Z,64.72
2022-10-04T01:59:50.093Z,66.57
2022-10-04T02:02:35.530Z,63.28
2022-10-04T02:05:06.563Z,63.70
2022-10-04T02:07:36.913Z,64.18
2022-10-04T02:10:09.171Z,60.38
2022-10-04T02:12:38.734Z,62.88
2022-10-04T02:15:09.476Z,62.95
2022-10-04T02:17:57.835Z,61.03
2022-10-04T02:21:00.853Z,61.95
2022-10-04T02:23:42.434Z,64.00
2022-10-04T02:26:11.240Z,64.30
2022-10-04T02:28:40.308Z,63.95
2022-10-04T02:31:27.453Z,65.05
2022-10-04T02:33:58.026Z,66.35
2022-10-04T02:36:28.637Z,67.28
2022-10-04T02:39:31.885Z,66.03
2022-10-04T02:42:32.331Z,66.47
2022-10-04T02:45:26.854Z,66.55
2022-10-04T02:48:50.927Z,65.40
2022-10-04T02:51:34.105Z,64.50
2022-10-04T02:54:19.131Z,68.70
2022-10-04T02:56:53.111Z,64.20
2022-10-04T03:01:59.731Z,65.25
2022-10-04T03:04:30.778Z,70.75
2022-10-04T03:07:02.071Z,71.43
2022-10-04T03:09:30.303Z,72.22
2022-10-04T03:11:57.594Z,74.32
2022-10-04T03:14:29.384Z,72.57
2022-10-04T03:17:18.886Z,69.90
2022-10-04T03:20:21.853Z,69.88
2022-10-04T03:23:04.380Z,69.90
2022-10-04T03:25:45.003Z,72.10
2022-10-04T03:28:12.146Z,65.13
2022-10-04T03:30:44.363Z,69.57
2022-10-04T03:33:23.185Z,66.28
2022-10-04T03:35:56.824Z,66.22
2022-10-04T03:38:47.884Z,67.20
2022-10-04T03:41:28.639Z,65.43
2022-10-04T03:44:15.990Z,62.63
2022-10-04T03:46:56.748Z,66.18
2022-10-04T03:49:37.000Z,64.70
2022-10-04T03:52:05.998Z,65.68
2022-10-04T03:54:33.999Z,65.55
2022-10-04T03:57:02.325Z,64.88
2022-10-04T03:59:29.939Z,63.35
2022-10-04T04:02:06.816Z,59.63
2022-10-04T04:04:45.995Z,62.55
2022-10-04T04:07:15.966Z,62.65
2022-10-04T04:10:08.972Z,65.07
2022-10-04T04:12:51.699Z,63.70
2022-10-04T04:15:18.745Z,65.63
2022-10-04T04:18:07.938Z,64.85
2022-10-04T04:21:09.916Z,64.35
2022-10-04T04:23:56.721Z,63.60
2022-10-04T04:26:31.525Z,65.05
2022-10-04T04:29:06.957Z,62.55
2022-10-04T04:31:41.375Z,67.45
2022-10-04T04:34:21.151Z,66.10
2022-10-04T04:37:12.912Z,65.25
2022-10-04T04:39:56.656Z,71.63
2022-10-04T04:42:29.671Z,69.38
2022-10-04T04:45:26.026Z,66.75
2022-10-04T04:48:07.263Z,70.20
2022-10-04T04:50:54.932Z,70.25
2022-10-04T04:53:36.323Z,67.97
2022-10-04T04:56:10.529Z,65.30
2022-10-04T04:58:43.599Z,72.25
2022-10-04T05:01:31.091Z,72.22
2022-10-04T05:04:12.553Z,69.43
2022-10-04T05:07:20.958Z,69.30
2022-10-04T05:10:36.971Z,71.10
2022-10-04T05:13:54.073Z,70.35
2022-10-04T05:17:01.011Z,72.80
2022-10-04T05:20:02.956Z,72.60
2022-10-04T05:22:48.121Z,78.22
2022-10-04T05:25:45.964Z,82.70
2022-10-04T05:28:26.625Z,72.00
2022-10-04T05:31:25.392Z,79.95
2022-10-04T05:33:57.506Z,75.53
2022-10-04T05:36:59.970Z,71.55
2022-10-04T05:40:07.974Z,70.47
2022-10-04T05:42:49.607Z,71.32
2022-10-04T05:45:41.023Z,71.03
2022-10-04T05:51:27.432Z,60.65
2022-10-04T05:53:57.761Z,60.97
2022-10-04T05:56:25.739Z,58.60
2022-10-04T05:59:11.262Z,61.15
2022-10-04T06:01:57.058Z,58.90
2022-10-04T06:04:32.772Z,55.88
2022-10-04T06:07:04.575Z,62.63
2022-10-04T06:09:46.712Z,62.05
2022-10-04T06:12:55.981Z,55.22
2022-10-04T06:16:01.586Z,57.08
2022-10-04T06:18:48.997Z,54.83
2022-10-04T06:22:14.016Z,50.85
2022-10-04T06:25:05.232Z,52.05
2022-10-04T06:27:36.302Z,48.72
2022-10-04T06:30:06.967Z,47.33
2022-10-04T06:32:36.807Z,47.20
2022-10-04T06:35:42.979Z,47.85
2022-10-04T06:39:04.297Z,46.55
2022-10-04T06:42:02.611Z,52.33
2022-10-04T06:44:56.011Z,49.92
2022-10-04T06:48:15.993Z,48.22
2022-10-04T06:52:01.037Z,54.20
2022-10-04T06:54:53.693Z,52.03
2022-10-04T06:57:58.423Z,49.55
2022-10-04T07:00:27.699Z,46.92
2022-10-04T07:03:09.911Z,51.90
2022-10-04T07:06:07.026Z,51.90
2022-10-04T07:08:51.189Z,50.47
2022-10-04T07:11:54.993Z,50.17
2022-10-04T07:15:04.000Z,50.33
2022-10-04T07:18:06.024Z,53.30
2022-10-04T07:20:49.038Z,50.08
2022-10-04T07:23:40.023Z,52.20
2022-10-04T07:26:50.014Z,48.63
2022-10-04T07:29:41.744Z,50.92
2022-10-04T07:32:26.264Z,51.08
2022-10-04T07:38:34.047Z,49.60
2022-10-04T07:41:23.919Z,51.17
2022-10-04T07:44:23.296Z,50.00
2022-10-04T07:47:06.448Z,51.80
2022-10-04T07:49:56.260Z,53.33
2022-10-04T07:52:57.659Z,56.13
2022-10-04T07:55:59.104Z,54.08
2022-10-04T07:58:46.285Z,48.38
2022-10-04T08:01:37.791Z,48.80
2022-10-04T08:04:16.949Z,46.15
2022-10-04T08:07:00.532Z,46.17
2022-10-04T08:09:27.454Z,46.25
2022-10-04T08:12:07.288Z,42.00
2022-10-04T08:15:01.040Z,44.63
2022-10-04T08:18:09.091Z,47.55
2022-10-04T08:21:01.401Z,42.55
2022-10-04T08:23:43.757Z,45.47
2022-10-04T08:26:27.512Z,45.58
2022-10-04T08:29:42.578Z,44.17
2022-10-04T08:32:29.914Z,37.97
2022-10-04T08:35:10.096Z,37.95
2022-10-04T08:38:19.068Z,35.45
2022-10-04T08:41:31.340Z,33.97
2022-10-04T08:45:09.056Z,30.48
2022-10-04T08:47:50.259Z,30.45
2022-10-04T08:50:38.645Z,30.17
2022-10-04T08:53:35.438Z,29.90
2022-10-04T08:56:40.344Z,32.00
2022-10-04T08:59:39.447Z,29.30
2022-10-04T09:02:46.411Z,30.10
2022-10-04T09:05:45.102Z,28.90
2022-10-04T09:08:31.571Z,29.88
2022-10-04T09:11:16.730Z,28.63
2022-10-04T09:14:08.718Z,28.73
2022-10-04T09:16:56.430Z,28.17
2022-10-04T09:20:37.370Z,29.55
2022-10-04T09:23:27.201Z,33.45
2022-10-04T09:26:18.254Z,31.38
2022-10-04T09:29:13.138Z,34.13
2022-10-04T09:31:52.357Z,29.85
2022-10-04T09:34:47.348Z,28.27
2022-10-04T09:37:52.078Z,31.10
2022-10-04T09:40:51.212Z,28.83
2022-10-04T09:44:10.151Z,30.45
2022-10-04T09:47:44.098Z,40.97
2022-10-04T09:50:30.071Z,35.90
2022-10-04T09:53:03.191Z,98.20
2022-10-04T09:56:01.308Z,62.73
2022-10-04T09:58:38.061Z,106.68
2022-10-04T10:01:28.393Z,61.95
2022-10-04T10:04:13.441Z,33.85
2022-10-04T10:07:18.163Z,29.13
2022-10-04T10:10:35.538Z,29.48
2022-10-04T10:13:42.492Z,27.27
2022-10-04T10:16:40.957Z,26.92
2022-10-04T10:20:04.136Z,27.35
2022-10-04T10:23:10.613Z,29.20
2022-10-04T10:26:15.222Z,29.77
2022-10-04T10:32:33.149Z,31.85
2022-10-04T10:35:37.191Z,30.42
2022-10-04T10:38:34.441Z,34.83
2022-10-04T10:41:21.223Z,33.90
2022-10-04T10:44:28.156Z,34.50
2022-10-04T10:47:30.373Z,32.25
2022-10-04T10:51:04.173Z,31.77
2022-10-04T10:54:14.652Z,30.33
2022-10-04T10:57:06.432Z,29.40
2022-10-04T11:00:10.443Z,26.98
2022-10-04T11:02:53.025Z,31.30
2022-10-04T11:05:51.118Z,29.98
2022-10-04T11:08:30.074Z,31.58
2022-10-04T11:11:03.418Z,30.10
2022-10-04T11:14:01.405Z,35.75
2022-10-04T11:16:41.967Z,38.60
2022-10-04T11:19:50.162Z,34.60
2022-10-04T11:23:00.162Z,35.10
2022-10-04T11:25:44.508Z,36.38
2022-10-04T11:28:18.467Z,34.88
2022-10-04T11:31:04.475Z,33.10
2022-10-04T11:34:24.173Z,33.70
2022-10-04T11:38:00.172Z,35.47
2022-10-04T11:41:17.204Z,36.65
2022-10-04T11:44:40.216Z,39.95
2022-10-04T11:47:44.179Z,37.65
2022-10-04T11:51:17.377Z,41.47
2022-10-04T11:54:34.201Z,39.03
2022-10-04T11:57:49.650Z,40.58
2022-10-04T12:00:25.528Z,37.95
2022-10-04T12:02:59.389Z,39.75
2022-10-04T12:08:36.226Z,42.80
2022-10-04T12:12:13.220Z,40.38
2022-10-04T12:15:08.533Z,40.75
2022-10-04T12:18:06.407Z,35.50
2022-10-04T12:20:54.579Z,36.20
2022-10-04T12:23:59.464Z,37.38
2022-10-04T12:27:01.245Z,36.22
2022-10-04T12:29:56.136Z,36.58
2022-10-04T12:32:40.719Z,35.70
2022-10-04T12:35:29.271Z,35.13
2022-10-04T12:38:51.279Z,37.10
2022-10-04T12:41:55.330Z,37.65
2022-10-04T12:45:33.428Z,37.37
2022-10-04T12:49:03.881Z,36.15
2022-10-04T12:52:24.289Z,34.45
2022-10-04T12:55:50.284Z,34.55
2022-10-04T12:58:52.017Z,36.50
2022-10-04T13:01:57.818Z,38.75
2022-10-04T13:04:47.046Z,38.15
2022-10-04T13:07:58.999Z,37.15
2022-10-04T13:11:17.312Z,37.17
2022-10-04T13:14:38.495Z,36.30
2022-10-04T13:17:27.615Z,40.10
2022-10-04T13:20:26.946Z,37.28
2022-10-04T13:26:04.048Z,36.13
2022-10-04T13:29:04.464Z,33.80
2022-10-04T13:31:34.752Z,34.10
2022-10-04T13:34:22.521Z,36.75
2022-10-04T13:37:14.296Z,34.13
2022-10-04T13:41:03.931Z,34.13
2022-10-04T13:44:30.264Z,32.40
2022-10-04T13:47:54.557Z,33.78
2022-10-04T13:51:01.308Z,33.38
2022-10-04T13:54:23.296Z,31.08
2022-10-04T13:57:43.343Z,30.95
2022-10-04T14:00:50.143Z,33.25
2022-10-04T14:03:29.958Z,32.53
2022-10-04T14:06:06.329Z,31.35
2022-10-04T14:09:34.331Z,33.47
2022-10-04T14:12:26.064Z,32.75
2022-10-04T14:15:23.952Z,30.40
2022-10-04T14:17:57.559Z,30.98
2022-10-04T14:20:46.683Z,30.67
2022-10-04T14:23:38.651Z,30.42
2022-10-04T14:26:26.534Z,29.92
2022-10-04T14:29:37.007Z,31.42
2022-10-04T14:32:31.384Z,32.22
2022-10-04T14:36:06.199Z,32.28
2022-10-04T14:39:13.365Z,32.15
2022-10-04T14:42:52.402Z,32.10
2022-10-04T14:46:11.523Z,31.15
2022-10-04T14:49:24.351Z,35.33
2022-10-04T14:52:40.514Z,34.20
2022-10-04T14:55:43.393Z,33.90
2022-10-04T14:58:37.701Z,35.05
2022-10-04T15:01:35.458Z,32.72
2022-10-04T15:04:45.528Z,30.23
2022-10-04T15:08:05.314Z,29.17
2022-10-04T15:11:14.161Z,33.35
2022-10-04T15:14:00.622Z,33.05
2022-10-04T15:16:47.821Z,32.50
2022-10-04T15:19:21.164Z,32.85
2022-10-04T15:22:20.401Z,34.50
2022-10-04T15:25:04.172Z,30.80
2022-10-04T15:27:34.157Z,31.90
2022-10-04T15:30:11.606Z,32.65
2022-10-04T15:33:10.956Z,32.15
2022-10-04T15:36:02.364Z,34.53
2022-10-04T15:38:57.183Z,32.05
2022-10-04T15:42:14.369Z,30.25
2022-10-04T15:45:27.372Z,31.40
2022-10-04T15:48:28.848Z,29.50
2022-10-04T15:51:20.592Z,30.38
2022-10-04T15:54:44.366Z,31.42
2022-10-04T15:57:28.271Z,30.73
2022-10-04T16:00:05.557Z,30.73
2022-10-04T16:03:17.952Z,30.33
2022-10-04T16:06:12.614Z,31.42
2022-10-04T16:08:57.865Z,32.45
2022-10-04T16:11:46.354Z,31.63
2022-10-04T16:14:37.943Z,32.42
2022-10-04T16:17:22.189Z,30.02
2022-10-04T16:22:32.688Z,30.80
2022-10-04T16:25:28.281Z,31.13
2022-10-04T16:27:56.186Z,31.17
2022-10-04T16:30:28.925Z,28.23
2022-10-04T16:32:59.216Z,31.52
2022-10-04T16:35:56.517Z,31.95
2022-10-04T16:39:24.476Z,32.38
2022-10-04T16:42:07.876Z,31.90
2022-10-04T16:45:00.433Z,34.03
2022-10-04T16:48:03.399Z,33.10
2022-10-04T16:50:50.044Z,29.67
2022-10-04T16:53:46.446Z,30.95
2022-10-04T16:56:30.008Z,31.42
2022-10-04T16:59:04.392Z,34.50
2022-10-04T17:02:10.902Z,29.88
2022-10-04T17:04:40.894Z,32.38
2022-10-04T17:08:05.484Z,33.00
2022-10-04T17:11:26.898Z,34.03
2022-10-04T17:14:07.985Z,29.30
2022-10-04T17:16:47.251Z,30.00
2022-10-04T17:19:35.712Z,31.80
2022-10-04T17:22:53.439Z,33.38
2022-10-04T17:25:57.310Z,32.38
2022-10-04T17:28:32.746Z,33.63
2022-10-04T17:31:05.889Z,32.38
2022-10-04T17:33:51.674Z,31.20
2022-10-04T17:36:39.521Z,29.65
2022-10-04T17:39:21.843Z,32.22
2022-10-04T17:42:10.241Z,31.23
2022-10-04T17:45:25.451Z,31.80
2022-10-04T17:49:10.464Z,29.95
2022-10-04T17:52:14.394Z,37.33
2022-10-04T17:55:23.434Z,36.60
2022-10-04T17:58:12.112Z,34.20
2022-10-04T18:00:57.822Z,33.42
2022-10-04T18:04:04.466Z,35.30
2022-10-04T18:06:57.424Z,38.50
2022-10-04T18:09:35.830Z,40.40
2022-10-04T18:12:37.565Z,38.55
2022-10-04T18:15:42.341Z,38.97
2022-10-04T18:18:16.310Z,37.30
2022-10-04T18:23:32.661Z,39.47
2022-10-04T18:26:18.971Z,38.10
2022-10-04T18:28:47.693Z,34.58
2022-10-04T18:31:29.574Z,32.42
2022-10-04T18:34:28.025Z,33.92
2022-10-04T18:37:50.495Z,36.45
2022-10-04T18:40:41.257Z,38.42
2022-10-04T18:43:27.367Z,38.00
2022-10-04T18:46:34.569Z,40.22
2022-10-04T18:49:39.465Z,39.92
2022-10-04T18:55:41.672Z,36.15
2022-10-04T18:58:53.367Z,36.55
2022-10-04T19:02:00.409Z,40.00
2022-10-04T19:05:18.693Z,38.35
2022-10-04T19:08:35.230Z,39.13
2022-10-04T19:11:47.524Z,39.22
2022-10-04T19:15:05.027Z,38.05
2022-10-04T19:18:22.514Z,40.72
2022-10-04T19:21:14.872Z,40.42
2022-10-04T19:24:09.537Z,40.03
2022-10-04T19:27:22.550Z,42.72
2022-10-04T19:30:31.434Z,40.13
2022-10-04T19:33:37.288Z,41.63
2022-10-04T19:36:31.440Z,41.85
2022-10-04T19:39:14.696Z,40.55
2022-10-04T19:41:51.706Z,41.15
2022-10-04T19:44:58.552Z,43.28
2022-10-04T19:48:15.582Z,42.40
2022-10-04T19:51:08.549Z,42.88
2022-10-04T19:53:57.594Z,44.15
2022-10-04T19:57:03.519Z,44.40
2022-10-04T19:59:51.443Z,44.20
2022-10-04T20:02:18.763Z,42.92
2022-10-04T20:05:05.524Z,44.25
2022-10-04T20:07:56.879Z,41.85
2022-10-04T20:10:24.113Z,45.70
2022-10-04T20:13:52.544Z,46.47
2022-10-04T20:17:02.717Z,46.63
2022-10-04T20:19:45.526Z,44.70
2022-10-04T20:22:43.524Z,47.92
2022-10-04T20:25:56.587Z,47.22
2022-10-04T20:28:42.948Z,47.08
2022-10-04T20:31:19.196Z,48.08
2022-10-04T20:33:48.590Z,48.15
2022-10-04T20:36:22.350Z,45.15
2022-10-04T20:38:59.723Z,44.20
2022-10-04T20:41:30.366Z,47.08
2022-10-04T20:44:17.557Z,48.83
2022-10-04T20:47:18.577Z,46.28
2022-10-04T20:50:01.805Z,45.58
2022-10-04T20:52:50.553Z,49.05
2022-10-04T20:55:52.680Z,49.83
2022-10-04T20:58:54.553Z,48.35
2022-10-04T21:01:58.539Z,48.00
2022-10-04T21:04:49.547Z,50.95
2022-10-04T21:07:31.112Z,51.80
2022-10-04T21:10:17.330Z,49.90
2022-10-04T21:12:44.369Z,51.90
2022-10-04T21:15:17.399Z,45.38
2022-10-04T21:17:59.954Z,46.50
2022-10-04T21:20:55.578Z,50.13
2022-10-04T21:23:56.581Z,46.60
2022-10-04T21:26:37.100Z,45.88
2022-10-04T21:29:04.109Z,49.00
2022-10-04T21:31:31.238Z,49.80
2022-10-04T21:34:51.975Z,46.25
2022-10-04T21:37:52.706Z,46.90
2022-10-04T21:40:19.834Z,45.85
2022-10-04T21:42:47.007Z,47.60
2022-10-04T21:45:36.647Z,45.38
2022-10-04T21:48:17.792Z,46.67
2022-10-04T21:50:44.809Z,47.53
2022-10-04T21:53:11.929Z,47.53
2022-10-04T21:55:39.313Z,57.22
2022-10-04T21:58:06.354Z,50.28
2022-10-04T22:00:53.717Z,51.78
2022-10-04T22:03:54.596Z,53.38
2022-10-04T22:06:35.344Z,50.63
2022-10-04T22:09:02.475Z,50.20
2022-10-04T22:11:29.587Z,52.80
2022-10-04T22:13:56.679Z,49.90
2022-10-04T22:16:24.119Z,54.42
2022-10-04T22:18:51.200Z,50.15
2022-10-04T22:21:18.243Z,47.70
2022-10-04T22:24:05.572Z,52.70
2022-10-04T22:26:47.111Z,54.35
2022-10-04T22:29:34.621Z,58.80
2022-10-04T22:32:37.599Z,55.08
2022-10-04T22:35:40.638Z,62.72
2022-10-04T22:38:41.631Z,59.25
2022-10-04T22:41:14.281Z,66.95
2022-10-04T22:44:03.611Z,63.78
2022-10-04T22:46:56.758Z,65.30
2022-10-04T22:49:30.833Z,68.20
2022-10-04T22:52:43.657Z,66.40
2022-10-04T22:55:24.739Z,68.90
2022-10-04T22:57:52.001Z,65.05
2022-10-04T23:00:19.141Z,61.95
2022-10-04T23:02:46.308Z,69.45
2022-10-04T23:05:33.619Z,68.88
2022-10-04T23:08:34.642Z,71.63
2022-10-04T23:11:15.407Z,69.38
2022-10-04T23:13:42.431Z,70.78
2022-10-04T23:16:22.737Z,68.70
2022-10-04T23:18:50.591Z,74.13
2022-10-04T23:21:25.910Z,69.07
2022-10-04T23:23:53.651Z,72.72
2022-10-04T23:26:24.382Z,69.65
2022-10-04T23:28:52.088Z,65.53
2022-10-04T23:31:40.671Z,70.80
2022-10-04T23:34:47.683Z,72.78
2022-10-04T23:37:32.503Z,81.35
2022-10-04T23:39:59.631Z,77.07
2022-10-04T23:42:31.746Z,75.28
2022-10-04T23:45:29.764Z,82.38
2022-10-04T23:48:22.360Z,78.15
2022-10-04T23:50:50.801Z,75.97
2022-10-04T23:53:31.912Z,81.30
2022-10-04T23:56:05.252Z,79.25
2022-10-04T23:58:36.387Z,77.85
